Latest Coastal Weather Observations for Cape Byron

IDN60701

Issued at 3:32 pm EDT Friday 19 December 2014 (issued every 10 minutes, with the page automatically refreshed every 10 minutes)

About coastal observations | Map of coastal stations | Coastal observations for NSW | Marine services | Other Formats
Station Details ID: 058216 Name: CAPE BYRON AWS Lat: -28.64 Lon: 153.64 Height: 95.0 m
Data from the previous 72 hours. | See also: Recent months at Cape Byron
Date/Time
EDT
Temp

°C
Wind Pressure Rain
since 9am
mm
Weather Cloud Vis
km
Sea
Height
m
Swell
Dir
 
Speed
knots
Gust
knots
hPa Trend Height
m
Period
s
Dir
19/03:30pm 29.6 ENE 13 17 1009.1 - 0.0 - - - - - - -
19/03:00pm 27.9 NE 11 16 1008.7 - 0.0 - - - - - - -
19/02:30pm 27.9 NNE 10 15 1009.3 - 0.0 - - - - - - -
19/02:00pm 28.0 NNE 9 14 1009.5 - 0.0 - - - - - - -
19/01:30pm 27.3 NNE 9 12 1009.6 - 0.0 - - - - - - -
19/01:00pm 27.5 NNE 8 11 1010.0 - 0.0 - - - - - - -
19/12:30pm 27.5 N 8 11 1010.2 - 0.0 - - - - - - -
19/12:00pm 26.8 NNE 8 11 1010.4 - 0.0 - - - - - - -
19/11:30am 26.7 N 6 8 1010.7 - 0.0 - - - - - - -
19/11:00am 25.9 N 6 9 1010.5 - 0.0 - - - - - - -
19/10:30am 25.0 NNE 5 9 1010.7 - 0.0 - - - - - - -
19/10:00am 24.0 N 5 8 1010.8 - 0.0 - - - - - - -
19/09:30am 23.3 N 5 8 1011.0 - 0.0 - - - - - - -
19/09:00am 22.8 N 5 8 1011.0 - 13.4 - - - - - - -
19/08:30am 22.4 NNE 5 7 1011.0 - 13.4 - - - - - - -
19/08:00am 21.9 N 7 9 1010.9 - 13.4 - - - - - - -
19/07:30am 21.3 N 9 12 1010.7 - 13.4 - - - - - - -
19/07:00am 20.6 N 9 11 1010.5 - 13.4 - - - - - - -
19/06:30am 20.5 N 9 11 1010.7 - 13.4 - - - - - - -
19/06:00am 20.3 N 6 9 1010.5 - 13.4 - - - - - - -
19/05:30am 20.7 NW 5 8 1010.0 - 13.4 - - - - - - -
19/05:00am 20.9 N 13 17 1009.3 - 13.4 - - - - - - -
19/04:30am 20.4 N 9 13 1009.6 - 13.4 - - - - - - -
19/04:00am 20.3 NNE 5 7 1010.0 - 13.0 - - - - - - -
19/03:30am 20.0 NW 8 12 1010.2 - 12.8 - - - - - - -
19/03:00am 20.2 NW 9 14 1010.9 - 12.6 Recent precip. - - - - - -
19/02:30am 20.9 WNW 9 13 1011.4 - 12.6 - - - - - - -
19/02:00am 19.9 WNW 8 9 1012.0 - 12.4 - - - - - - -
19/01:30am 21.0 WSW 6 9 1012.0 - 12.0 - - - - - - -
19/01:00am 23.5 N 6 8 1011.9 - 11.0 - - - - - - -
19/12:30am 23.3 NE 8 9 1011.5 - 10.8 - - - - - - -
19/12:00am 23.1 ESE 6 10 1011.1 - 10.6 Rain - - - - - -
 
Date/Time
EDT
Temp

°C
Wind Pressure Rain
since 9am
mm
Weather Cloud Vis
km
Sea
Height
m
Swell
Dir
 
Speed
knots
Gust
knots
hPa Trend Height
m
Period
s
Dir
18/11:30pm 22.3 SW 7 11 1011.8 - 10.2 - - - - - - -
18/11:00pm 23.4 NE 9 10 1010.8 - 10.2 - - - - - - -
18/10:30pm 23.1 NE 15 21 1010.9 - 10.2 - - - - - - -
18/10:00pm 23.1 E 8 12 1010.7 - 10.2 - - - - - - -
18/09:30pm 23.5 NNE 10 17 1009.8 - 10.0 - - - - - - -
18/09:00pm 22.9 NNE 12 18 1009.8 - 9.8 Recent precip. - - - - - -
18/08:30pm 23.2 NNE 8 11 1009.9 - 9.6 - - - - - - -
18/08:00pm 21.6 NW 7 11 1009.5 - 9.6 - - - - - - -
18/07:30pm 21.2 W 12 19 1009.5 - 9.6 - - - - - - -
18/07:19pm 21.1 W 19 27 1009.2 - 9.4 - - - - - - -
18/07:00pm 21.5 WNW 25 41 1008.9 - 3.4 - - - - - - -
18/06:52pm 24.1 WSW 12 41 1009.1 - 0.2 - - - - - - -
18/06:44pm 24.8 NW 9 17 1008.3 - 0.0 - - - - - - -
18/06:30pm 24.7 NNW 15 22 1006.3 - 0.0 - - - - - - -
18/06:00pm 24.7 N 15 22 1006.0 - 0.0 - - - - - - -
18/05:30pm 25.2 N 17 24 1005.4 - 0.0 - - - - - - -
18/05:00pm 25.3 N 17 23 1005.3 - 0.0 - - - - - - -
18/04:30pm 25.6 NNE 16 24 1005.1 - 0.0 - - - - - - -
18/04:00pm 25.8 NNE 15 21 1005.5 - 0.0 - - - - - - -
18/03:30pm 26.9 NNE 16 23 1005.5 - 0.0 - - - - - - -
18/03:00pm 27.4 NNE 16 24 1006.2 - 0.0 - - - - - - -
18/02:30pm 27.3 NNE 13 19 1007.2 - 0.0 - - - - - - -
18/02:00pm 26.5 NNE 13 19 1007.7 - 0.0 - - - - - - -
18/01:30pm 27.5 NNE 13 21 1008.2 - 0.0 - - - - - - -
18/01:00pm 26.7 NNE 13 19 1008.8 - 0.0 - - - - - - -
18/12:30pm 26.8 NNE 11 15 1009.2 - 0.0 - - - - - - -
18/12:00pm 26.1 NNE 10 14 1009.9 - 0.0 - - - - - - -
18/11:30am 26.5 N 7 11 1010.7 - 0.0 - - - - - - -
18/11:00am 26.1 NNE 8 10 1010.3 - 0.0 - - - - - - -
18/10:30am 25.7 NNW 6 10 1010.7 - 0.0 - - - - - - -
18/10:00am 27.0 N 4 6 1010.7 - 0.0 - - - - - - -
18/09:30am 24.8 NNE 6 14 1010.7 - 0.0 - - - - - - -
18/09:00am 24.4 NNW 6 11 1010.3 - 0.4 Recent precip. - - - - - -
18/08:30am 23.9 NNE 9 13 1010.4 - 0.2 - - - - - - -
18/08:00am 24.2 NNW 5 7 1010.4 - 0.2 - - - - - - -
18/07:30am 24.5 NE 4 6 1009.8 - 0.2 - - - - - - -
18/07:00am 23.4 SW 3 4 1009.7 - 0.2 - - - - - - -
18/06:30am 23.0 SW 6 7 1009.4 - 0.2 - - - - - - -
18/06:00am 22.4 W 11 21 1009.3 - 0.2 - - - - - - -
18/05:30am 22.7 NNW 5 7 1009.3 - 0.2 - - - - - - -
18/05:00am 22.6 WSW 9 14 1010.5 - 0.2 - - - - - - -
18/04:30am 23.0 WSW 11 13 1011.4 - 0.2 - - - - - - -
18/04:00am 23.1 SSW 9 11 1010.9 - 0.2 - - - - - - -
18/03:30am 23.1 E 16 19 1009.3 - 0.2 - - - - - - -
18/03:00am 23.3 ESE 9 11 1009.9 - 0.2 - - - - - - -
18/02:30am 23.0 SSW 9 11 1010.2 - 0.2 - - - - - - -
18/02:00am 23.3 S 12 15 1009.8 - 0.2 - - - - - - -
18/01:30am 23.3 S 11 17 1009.8 - 0.2 - - - - - - -
18/01:00am 23.8 SE 15 21 1009.8 - 0.2 - - - - - - -
18/12:30am 23.8 SE 17 23 1009.7 - 0.2 - - - - - - -
18/12:00am 23.8 SE 20 25 1009.3 - 0.2 - - - - - - -
 
Date/Time
EDT
Temp

°C
Wind Pressure Rain
since 9am
mm
Weather Cloud Vis
km
Sea
Height
m
Swell
Dir
 
Speed
knots
Gust
knots
hPa Trend Height
m
Period
s
Dir
17/11:30pm 24.0 SSE 17 23 1009.6 - 0.2 - - - - - - -
17/11:00pm 24.1 S 21 26 1009.6 - 0.2 - - - - - - -
17/10:57pm 23.9 S 20 26 1009.5 - 0.2 - - - - - - -
17/10:30pm 23.7 SSW 13 18 1008.9 - 0.2 - - - - - - -
17/10:00pm 23.7 SSW 8 12 1008.6 - 0.2 - - - - - - -
17/09:30pm 24.5 N 4 6 1007.4 - 0.2 - - - - - - -
17/09:00pm 24.6 NNW 7 11 1006.6 - 0.2 - - - - - - -
17/08:30pm 24.6 NNW 9 14 1006.0 - 0.2 - - - - - - -
17/08:00pm 24.9 N 15 21 1005.3 - 0.2 - - - - - - -
17/07:30pm 25.3 N 17 23 1004.7 - 0.2 - - - - - - -
17/07:00pm 25.8 N 16 21 1004.3 - 0.2 - - - - - - -
17/06:30pm 26.8 N 16 21 1003.9 - 0.2 - - - - - - -
17/06:00pm 27.2 NNE 16 22 1003.6 - 0.2 - - - - - - -
17/05:30pm 27.8 N 14 21 1003.2 - 0.2 - - - - - - -
17/05:00pm 27.7 N 14 23 1003.1 - 0.2 - - - - - - -
17/04:30pm 27.8 NNE 13 20 1003.2 - 0.2 - - - - - - -
17/04:00pm 28.0 NNE 16 22 1003.5 - 0.2 - - - - - - -
17/03:30pm 27.8 NNE 16 23 1003.6 - 0.2 - - - - - - -
17/03:00pm 28.4 NNE 15 21 1003.9 - 0.2 - - - - - - -
17/02:30pm 28.6 NNE 13 19 1004.1 - 0.2 - - - - - - -
17/02:00pm 29.4 NNE 14 19 1004.2 - 0.2 - - - - - - -
17/01:30pm 28.8 NNE 12 18 1004.3 - 0.2 - - - - - - -
17/01:00pm 28.5 NNE 13 18 1004.6 - 0.2 - - - - - - -
17/12:30pm 27.8 NNE 13 19 1004.8 - 0.2 - - - - - - -
17/12:00pm 27.7 NNE 11 19 1004.9 - 0.2 - - - - - - -
17/11:30am 27.4 NNE 10 15 1005.2 - 0.2 - - - - - - -
17/11:00am 26.9 N 13 18 1005.2 - 0.2 - - - - - - -
17/10:30am 26.3 N 13 19 1005.2 - 0.2 - - - - - - -
17/10:00am 25.9 N 13 18 1005.4 - 0.0 - - - - - - -
17/09:30am 25.7 N 13 17 1005.7 - 0.0 - - - - - - -
17/09:00am 25.0 N 12 16 1006.0 - 0.6 - - - - - - -
17/08:30am 24.7 N 12 16 1006.0 - 0.6 - - - - - - -
17/08:00am 24.3 N 7 9 1006.0 - 0.6 - - - - - - -
17/07:30am 23.9 NNW 6 10 1006.0 - 0.6 - - - - - - -
17/07:00am 23.6 NNE 5 7 1005.7 - 0.6 - - - - - - -
17/06:30am 22.7 N 6 9 1005.3 - 0.6 - - - - - - -
17/06:00am 22.1 N 4 7 1005.3 - 0.6 - - - - - - -
17/05:30am 22.1 NE 5 9 1004.9 - 0.6 - - - - - - -
17/05:00am 22.1 NNW 7 11 1004.4 - 0.6 - - - - - - -
17/04:30am 22.0 NNW 8 13 1004.5 - 0.6 - - - - - - -
17/04:00am 21.8 NNW 7 11 1004.7 - 0.6 - - - - - - -
17/03:30am 22.3 NNW 7 10 1005.5 - 0.6 - - - - - - -
17/03:00am 22.0 NNW 5 10 1006.0 - 0.6 - - - - - - -
17/02:30am 22.1 N 11 16 1005.6 - 0.6 - - - - - - -
17/02:00am 22.4 N 8 11 1006.3 - 0.6 - - - - - - -
17/01:30am 22.3 N 8 10 1006.9 - 0.4 - - - - - - -
17/01:00am 22.1 NNW 6 9 1007.3 - 0.4 - - - - - - -
17/12:30am 21.8 WSW 11 14 1007.9 - 0.4 - - - - - - -
17/12:00am 22.5 NNW 5 8 1008.1 - 0.4 Recent precip. - - - - - -
 
Date/Time
EDT
Temp

°C
Wind Pressure Rain
since 9am
mm
Weather Cloud Vis
km
Sea
Height
m
Swell
Dir
 
Speed
knots
Gust
knots
hPa Trend Height
m
Period
s
Dir
16/11:30pm 23.0 NNW 3 5 1008.3 - 0.4 - - - - - - -
16/11:00pm 23.3 NW 4 7 1008.8 - 0.0 - - - - - - -
16/10:30pm 23.6 NW 12 23 1008.6 - 0.0 - - - - - - -
16/10:25pm 23.7 NNW 13 22 1008.6 - 0.0 - - - - - - -
16/10:00pm 23.7 N 16 23 1006.3 - 0.0 - - - - - - -
16/09:30pm 23.7 N 17 25 1005.7 - 0.0 - - - - - - -
16/09:00pm 23.6 N 16 21 1005.7 - 0.0 - - - - - - -
16/08:43pm 23.7 N 16 26 1005.8 - 0.0 - - - - - - -
16/08:30pm 23.7 N 16 22 1005.8 - 0.0 - - - - - - -
16/08:00pm 23.6 N 16 22 1005.6 - 0.0 - - - - - - -
16/07:30pm 23.7 NNE 14 20 1005.3 - 0.0 - - - - - - -
16/07:00pm 23.8 NNE 14 20 1005.2 - 0.0 - - - - - - -
16/06:30pm 23.9 NNE 16 21 1004.9 - 0.0 - - - - - - -
16/06:00pm 24.2 NNE 15 21 1005.0 - 0.0 - - - - - - -
16/05:30pm 24.6 NNE 14 21 1005.1 - 0.0 - - - - - - -
16/05:00pm 24.9 NNE 14 19 1005.4 - 0.0 - - - - - - -
16/04:30pm 25.3 NE 15 23 1005.6 - 0.0 - - - - - - -
16/04:00pm 25.2 NNE 13 19 1006.1 - 0.0 - - - - - - -

Other Formats:

Comma delimited format used in spreadsheet applications
http://www.bom.gov.au/fwo/IDN60701/IDN60701.94599.axf

JavaScript Object Notation format (JSON) in row-major order
http://www.bom.gov.au/fwo/IDN60701/IDN60701.94599.json